Time;durP1;ratioP1;P1;durP2;ratioP2;P2;SDS_P1;SDS_P2;PMS_P1;PMS_P2;Temp;Humidity;BMP_temperature;BMP_pressure;BME280_temperature;BME280_humidity;BME280_pressure;Samples;Min_cycle;Max_cycle;Signal;HPM_P1;HPM_P2
2022/01/26 00:07:12;;;;;;;;;;;;;;;;;;5138070;27;28567;-95
2022/01/26 00:09:37;;;;;;;;;;;;;;;;;;5155676;27;28400;-94
2022/01/26 00:12:02;;;;;;;;;;;;;;;;;;5155196;27;28402;-94
2022/01/26 00:14:27;;;;;;;;;;;;;;;;;;5155200;27;29969;-96
2022/01/26 00:16:52;;;;;;;;;;;;;;;;;;5155280;27;28958;-94
2022/01/26 00:19:25;;;;;;;;;;;;;;;;;;5154770;27;28376;-92
2022/01/26 00:21:55;;;;;;;;;;;;;;;;;;5151672;27;28855;-92
2022/01/26 00:29:19;;;;;;;;;;;;;;;;;;5143331;27;27900;-92
2022/01/26 00:39:53;;;;;;;;;;;;;;;;;;5142322;27;28410;-93
2022/01/26 00:42:19;;;;;;;;;;;;;;;;;;5124512;27;28446;-93
2022/01/26 00:44:47;;;;;;;;;;;;;;;;;;5123387;27;30617;-91
2022/01/26 00:47:14;;;;;;;;;;;;;;;;;;5123847;27;28761;-92
2022/01/26 00:49:40;;;;;;;;;;;;;;;;;;5123390;27;27823;-92
2022/01/26 00:52:07;;;;;;;;;;;;;;;;;;5123700;27;27862;-93
2022/01/26 00:54:32;;;;;;;;;;;;;;;;;;5124138;27;30773;-93
2022/01/26 00:56:57;;;;;;;;;;;;;;;;;;5123287;27;28304;-92
2022/01/26 00:59:22;;;;;;;;;;;;;;;;;;5124734;27;28598;-91
2022/01/26 01:01:50;;;;;;;;;;;;;;;;;;5123791;27;28449;-92
2022/01/26 01:04:15;;;;;;;;;;;;;;;;;;5123516;27;30494;-92
2022/01/26 01:06:48;;;;;;;;;;;;;;;;;;5153041;27;28507;-92
2022/01/26 01:09:13;;;;;;;;;;;;;;;;;;5137739;27;27746;-92
2022/01/26 01:11:38;;;;;;;;;;;;;;;;;;5140670;27;28298;-92
2022/01/26 01:14:03;;;;;;;;;;;;;;;;;;5122410;27;29626;-91
2022/01/26 01:16:29;;;;;;;;;;;;;;;;;;5145677;27;28836;-92
2022/01/26 01:31:53;;;;;;;;;;;;;;;;;;5142039;27;28435;-92
2022/01/26 01:34:19;;;;;;;;;;;;;;;;;;5136676;27;30141;-91
2022/01/26 01:36:47;;;;;;;;;;;;;;;;;;5155104;27;28241;-93
2022/01/26 01:39:12;;;;;;;;;;;;;;;;;;5157144;27;28489;-95
2022/01/26 01:41:37;;;;;;;;;;;;;;;;;;5157043;27;27850;-95
2022/01/26 01:44:04;;;;;;;;;;;;;;;;;;5153545;27;30063;-94
2022/01/26 01:46:29;;;;;;;;;;;;;;;;;;5137002;27;28532;-95
2022/01/26 01:48:54;;;;;;;;;;;;;;;;;;5156450;27;28418;-94
2022/01/26 01:51:20;;;;;;;;;;;;;;;;;;5142583;27;28507;-94
2022/01/26 01:53:45;;;;;;;;;;;;;;;;;;5145832;27;30049;-95
2022/01/26 01:56:10;;;;;;;;;;;;;;;;;;5157017;27;28646;-95
2022/01/26 01:58:36;;;;;;;;;;;;;;;;;;5157854;27;28358;-93
2022/01/26 02:01:01;;;;;;;;;;;;;;;;;;5145788;27;28229;-95
2022/01/26 02:03:26;;;;;;;;;;;;;;;;;;5136558;27;29798;-95
2022/01/26 02:05:51;;;;;;;;;;;;;;;;;;5136326;27;28403;-95
2022/01/26 02:08:16;;;;;;;;;;;;;;;;;;5136241;27;27843;-95
2022/01/26 02:10:42;;;;;;;;;;;;;;;;;;5136502;27;27929;-93
2022/01/26 02:13:15;;;;;;;;;;;;;;;;;;5135875;27;29791;-93
2022/01/26 02:15:48;;;;;;;;;;;;;;;;;;5136410;27;28353;-94
2022/01/26 02:53:58;;;;;;;;;;;;;;;;;;4997710;28;28296;-94
2022/01/26 02:56:43;;;;;;;;;;;;;;;;;;4996641;28;30043;-95
2022/01/26 03:09:25;;;;;;;;;;;;;;;;;;5119746;27;27718;-95
2022/01/26 03:11:50;;;;;;;;;;;;;;;;;;5121612;27;28539;-95
2022/01/26 03:16:46;;;;;;;;;;;;;;;;;;5140116;27;28487;-94
2022/01/26 03:21:52;;;;;;;;;;;;;;;;;;5140132;27;28530;-95
2022/01/26 03:29:59;;;;;;;;;;;;;;;;;;5140161;27;28492;-94
2022/01/26 03:35:12;;;;;;;;;;;;;;;;;;5119112;27;27791;-94
2022/01/26 03:37:39;;;;;;;;;;;;;;;;;;5135658;27;30160;-94
2022/01/26 03:40:12;;;;;;;;;;;;;;;;;;5135152;27;28539;-94
2022/01/26 03:42:37;;;;;;;;;;;;;;;;;;5135813;27;28440;-94
2022/01/26 03:45:02;;;;;;;;;;;;;;;;;;5135478;27;35140;-94
2022/01/26 03:47:27;;;;;;;;;;;;;;;;;;5148753;27;30317;-94
2022/01/26 03:49:52;;;;;;;;;;;;;;;;;;5156307;27;28533;-95
2022/01/26 03:52:17;;;;;;;;;;;;;;;;;;5156006;27;29023;-94
2022/01/26 03:54:42;;;;;;;;;;;;;;;;;;5151305;27;27940;-91
2022/01/26 03:57:07;;;;;;;;;;;;;;;;;;5121775;27;30321;-96
2022/01/26 03:59:32;;;;;;;;;;;;;;;;;;5150483;27;28774;-95
2022/01/26 04:01:58;;;;;;;;;;;;;;;;;;5140177;27;28322;-95
2022/01/26 04:04:23;;;;;;;;;;;;;;;;;;5140083;27;28417;-95
2022/01/26 04:06:48;;;;;;;;;;;;;;;;;;5139801;27;30005;-95
2022/01/26 04:09:15;;;;;;;;;;;;;;;;;;5140756;27;28196;-95
2022/01/26 04:11:44;;;;;;;;;;;;;;;;;;5139835;27;28240;-94
2022/01/26 04:14:10;;;;;;;;;;;;;;;;;;5139271;27;28540;-94
2022/01/26 04:16:35;;;;;;;;;;;;;;;;;;5141971;27;29796;-95
2022/01/26 04:19:01;;;;;;;;;;;;;;;;;;5138809;27;28262;-95
2022/01/26 04:24:16;;;;;;;;;;;;;;;;;;5143627;27;27771;-95
2022/01/26 04:29:22;;;;;;;;;;;;;;;;;;5142997;27;27795;-94
2022/01/26 04:31:47;;;;;;;;;;;;;;;;;;5159810;27;28453;-94
2022/01/26 04:34:12;;;;;;;;;;;;;;;;;;5160592;27;28413;-92
2022/01/26 04:36:45;;;;;;;;;;;;;;;;;;5159171;27;29831;-92
2022/01/26 04:39:15;;;;;;;;;;;;;;;;;;5155903;27;28434;-92
2022/01/26 04:41:46;;;;;;;;;;;;;;;;;;5124424;27;28422;-92
2022/01/26 04:44:24;;;;;;;;;;;;;;;;;;5125530;27;28416;-92
2022/01/26 04:46:49;;;;;;;;;;;;;;;;;;5159006;27;29794;-92
2022/01/26 04:49:14;;;;;;;;;;;;;;;;;;5159766;27;28416;-92
2022/01/26 04:51:39;;;;;;;;;;;;;;;;;;5159070;27;27788;-92
2022/01/26 04:54:05;;;;;;;;;;;;;;;;;;5160548;27;28338;-93
2022/01/26 04:56:30;;;;;;;;;;;;;;;;;;5157059;27;29972;-93
2022/01/26 04:58:55;;;;;;;;;;;;;;;;;;5158251;27;28445;-92
2022/01/26 05:01:20;;;;;;;;;;;;;;;;;;5147622;27;28334;-92
2022/01/26 05:03:45;;;;;;;;;;;;;;;;;;5136789;27;28447;-94
2022/01/26 05:06:10;;;;;;;;;;;;;;;;;;5135770;27;29737;-92
2022/01/26 05:08:36;;;;;;;;;;;;;;;;;;5155184;27;28741;-92
2022/01/26 05:11:02;;;;;;;;;;;;;;;;;;5143443;27;28338;-93
2022/01/26 05:13:27;;;;;;;;;;;;;;;;;;5147000;27;28531;-91
2022/01/26 05:15:52;;;;;;;;;;;;;;;;;;5153790;27;29681;-93
2022/01/26 05:18:17;;;;;;;;;;;;;;;;;;5137164;27;28283;-92
2022/01/26 05:20:43;;;;;;;;;;;;;;;;;;5157244;27;27920;-92
2022/01/26 05:23:09;;;;;;;;;;;;;;;;;;5158817;27;28019;-93
2022/01/26 05:25:34;;;;;;;;;;;;;;;;;;5147333;27;29832;-93
2022/01/26 05:27:59;;;;;;;;;;;;;;;;;;5142612;27;28362;-93
2022/01/26 05:30:24;;;;;;;;;;;;;;;;;;5157293;27;28268;-92
2022/01/26 05:32:50;;;;;;;;;;;;;;;;;;5158294;27;28310;-92
2022/01/26 05:35:15;;;;;;;;;;;;;;;;;;5158168;27;29752;-92
2022/01/26 05:37:40;;;;;;;;;;;;;;;;;;5158558;27;28276;-92
2022/01/26 05:40:05;;;;;;;;;;;;;;;;;;5123285;27;28560;-92
2022/01/26 05:42:31;;;;;;;;;;;;;;;;;;5123793;27;28485;-93
2022/01/26 05:45:02;;;;;;;;;;;;;;;;;;5124228;27;29957;-92
2022/01/26 05:47:27;;;;;;;;;;;;;;;;;;5123168;27;28570;-92
2022/01/26 05:49:53;;;;;;;;;;;;;;;;;;5123558;27;28515;-93
2022/01/26 05:52:18;;;;;;;;;;;;;;;;;;5123117;27;28623;-93
2022/01/26 05:54:43;;;;;;;;;;;;;;;;;;5123535;27;30072;-87
2022/01/26 05:57:08;;;;;;;;;;;;;;;;;;5133448;27;28382;-85
2022/01/26 05:59:33;;;;;;;;;;;;;;;;;;5137651;27;28388;-85
2022/01/26 06:01:58;;;;;;;;;;;;;;;;;;5138220;27;28297;-85
2022/01/26 06:04:23;;;;;;;;;;;;;;;;;;5138681;27;29139;-86
2022/01/26 06:06:49;;;;;;;;;;;;;;;;;;5137715;27;28319;-86
2022/01/26 06:09:14;;;;;;;;;;;;;;;;;;5138378;27;28479;-87
2022/01/26 06:11:39;;;;;;;;;;;;;;;;;;5138613;27;28330;-88
2022/01/26 06:14:04;;;;;;;;;;;;;;;;;;5119343;27;28512;-85
2022/01/26 06:16:29;;;;;;;;;;;;;;;;;;5137138;27;28326;-86
2022/01/26 06:18:54;;;;;;;;;;;;;;;;;;5137498;27;28305;-90
2022/01/26 06:21:19;;;;;;;;;;;;;;;;;;5119372;27;28505;-92
2022/01/26 06:23:44;;;;;;;;;;;;;;;;;;5154968;27;29988;-88
2022/01/26 06:26:09;;;;;;;;;;;;;;;;;;5140555;27;27746;-94
2022/01/26 06:28:35;;;;;;;;;;;;;;;;;;5160175;27;28392;-90
2022/01/26 06:31:00;;;;;;;;;;;;;;;;;;5151967;27;28481;-89
2022/01/26 06:33:26;;;;;;;;;;;;;;;;;;5138250;27;28251;-89
2022/01/26 06:35:51;;;;;;;;;;;;;;;;;;5138474;27;28239;-87
2022/01/26 06:38:16;;;;;;;;;;;;;;;;;;5118333;27;28690;-90
2022/01/26 06:40:41;;;;;;;;;;;;;;;;;;5136965;27;28436;-89
2022/01/26 06:43:13;;;;;;;;;;;;;;;;;;5118538;27;29690;-90
2022/01/26 06:45:45;;;;;;;;;;;;;;;;;;5119353;27;28619;-89
2022/01/26 06:50:51;;;;;;;;;;;;;;;;;;5138334;27;28383;-91
2022/01/26 06:53:16;;;;;;;;;;;;;;;;;;5119805;27;30548;-94
2022/01/26 06:55:41;;;;;;;;;;;;;;;;;;5122658;27;28547;-89
2022/01/26 06:58:06;;;;;;;;;;;;;;;;;;5120349;27;28465;-92
2022/01/26 07:00:31;;;;;;;;;;;;;;;;;;5121265;27;28451;-91
2022/01/26 07:02:57;;;;;;;;;;;;;;;;;;5141848;27;28391;-89
2022/01/26 07:05:22;;;;;;;;;;;;;;;;;;5122031;27;28201;-88
2022/01/26 07:07:47;;;;;;;;;;;;;;;;;;5139271;27;28496;-92
2022/01/26 07:10:12;;;;;;;;;;;;;;;;;;5120877;27;28432;-92
2022/01/26 07:12:37;;;;;;;;;;;;;;;;;;5120099;27;29832;-92
2022/01/26 07:23:01;;;;;;;;;;;;;;;;;;5137788;27;29122;-89
2022/01/26 07:25:26;;;;;;;;;;;;;;;;;;5116011;27;28476;-91
2022/01/26 07:27:51;;;;;;;;;;;;;;;;;;5115001;27;28389;-90
2022/01/26 07:30:16;;;;;;;;;;;;;;;;;;5115510;27;28351;-89
2022/01/26 07:32:42;;;;;;;;;;;;;;;;;;5116197;27;28252;-88
2022/01/26 07:35:07;;;;;;;;;;;;;;;;;;5117432;27;28319;-92
2022/01/26 07:37:32;;;;;;;;;;;;;;;;;;5116954;27;28480;-92
2022/01/26 07:40:06;;;;;;;;;;;;;;;;;;5117090;27;28318;-93
2022/01/26 07:42:31;;;;;;;;;;;;;;;;;;5117283;27;30162;-93
2022/01/26 07:44:56;;;;;;;;;;;;;;;;;;5116521;27;28540;-91
2022/01/26 07:47:23;;;;;;;;;;;;;;;;;;5116717;27;28333;-90
2022/01/26 07:49:48;;;;;;;;;;;;;;;;;;5116681;27;28597;-91
2022/01/26 07:52:14;;;;;;;;;;;;;;;;;;5116110;27;29847;-91
2022/01/26 07:54:39;;;;;;;;;;;;;;;;;;5116401;27;28354;-91
2022/01/26 07:57:06;;;;;;;;;;;;;;;;;;5116025;27;28240;-91
2022/01/26 07:59:31;;;;;;;;;;;;;;;;;;5116063;27;28598;-90
2022/01/26 08:01:57;;;;;;;;;;;;;;;;;;5115802;27;30839;-92
2022/01/26 08:04:22;;;;;;;;;;;;;;;;;;5116102;27;29380;-91
2022/01/26 08:06:47;;;;;;;;;;;;;;;;;;5116051;27;28500;-91
2022/01/26 08:09:12;;;;;;;;;;;;;;;;;;5116099;27;28648;-91
2022/01/26 08:11:37;;;;;;;;;;;;;;;;;;5115683;27;30818;-91
2022/01/26 08:14:02;;;;;;;;;;;;;;;;;;5115931;27;28440;-90
2022/01/26 08:16:27;;;;;;;;;;;;;;;;;;5115469;27;28504;-91
2022/01/26 08:18:52;;;;;;;;;;;;;;;;;;5116891;27;27778;-91
2022/01/26 08:21:19;;;;;;;;;;;;;;;;;;5115349;27;33635;-92
2022/01/26 08:23:44;;;;;;;;;;;;;;;;;;5115302;27;29224;-91
2022/01/26 08:26:10;;;;;;;;;;;;;;;;;;5128521;27;27822;-90
2022/01/26 08:28:39;;;;;;;;;;;;;;;;;;5119903;27;28413;-93
2022/01/26 08:31:04;;;;;;;;;;;;;;;;;;5122479;27;30338;-92
2022/01/26 08:33:29;;;;;;;;;;;;;;;;;;5122176;27;28367;-95
2022/01/26 08:35:54;;;;;;;;;;;;;;;;;;5121878;27;27775;-94
2022/01/26 08:38:19;;;;;;;;;;;;;;;;;;5121076;27;27889;-92
2022/01/26 08:40:46;;;;;;;;;;;;;;;;;;5120742;27;30669;-92
2022/01/26 08:43:11;;;;;;;;;;;;;;;;;;5120670;27;28407;-90
2022/01/26 08:45:37;;;;;;;;;;;;;;;;;;5120525;27;28433;-91
2022/01/26 08:48:02;;;;;;;;;;;;;;;;;;5124315;27;28442;-91
2022/01/26 08:50:27;;;;;;;;;;;;;;;;;;5123867;27;30738;-92
2022/01/26 08:52:52;;;;;;;;;;;;;;;;;;5123825;27;28440;-92
2022/01/26 08:55:17;;;;;;;;;;;;;;;;;;5123987;27;28345;-92
2022/01/26 08:57:42;;;;;;;;;;;;;;;;;;5123653;27;28330;-90
2022/01/26 09:00:08;;;;;;;;;;;;;;;;;;5123320;27;29865;-94
2022/01/26 09:02:33;;;;;;;;;;;;;;;;;;5124358;27;28412;-92
2022/01/26 09:04:58;;;;;;;;;;;;;;;;;;5123960;27;28464;-90
2022/01/26 09:07:23;;;;;;;;;;;;;;;;;;5123298;27;27967;-91
2022/01/26 09:09:48;;;;;;;;;;;;;;;;;;5123313;27;33721;-91
2022/01/26 09:12:14;;;;;;;;;;;;;;;;;;5123057;27;28845;-91
2022/01/26 09:14:39;;;;;;;;;;;;;;;;;;5124139;27;28398;-91
2022/01/26 09:17:05;;;;;;;;;;;;;;;;;;5125239;27;28663;-90
2022/01/26 09:19:32;;;;;;;;;;;;;;;;;;5124571;27;29809;-92
2022/01/26 09:21:57;;;;;;;;;;;;;;;;;;5125202;27;28534;-92
2022/01/26 09:24:22;;;;;;;;;;;;;;;;;;5124927;27;28288;-92
2022/01/26 09:26:47;;;;;;;;;;;;;;;;;;5124422;27;28365;-92
2022/01/26 09:29:12;;;;;;;;;;;;;;;;;;5124214;27;30773;-93
2022/01/26 09:31:37;;;;;;;;;;;;;;;;;;5124026;27;28343;-93
2022/01/26 09:34:02;;;;;;;;;;;;;;;;;;5124315;27;28306;-91
2022/01/26 09:36:28;;;;;;;;;;;;;;;;;;5125231;27;28307;-92
2022/01/26 09:38:53;;;;;;;;;;;;;;;;;;5124582;27;30115;-92
2022/01/26 09:41:18;;;;;;;;;;;;;;;;;;5125067;27;28363;-93
2022/01/26 09:43:43;;;;;;;;;;;;;;;;;;5125213;27;28332;-91
2022/01/26 09:46:08;;;;;;;;;;;;;;;;;;5125874;27;28401;-93
2022/01/26 09:48:35;;;;;;;;;;;;;;;;;;5125260;27;29666;-93
2022/01/26 09:51:00;;;;;;;;;;;;;;;;;;5124977;27;28672;-91
2022/01/26 09:53:30;;;;;;;;;;;;;;;;;;5122958;27;28252;-90
2022/01/26 09:55:56;;;;;;;;;;;;;;;;;;5122678;27;28417;-92
2022/01/26 09:58:21;;;;;;;;;;;;;;;;;;5121985;27;29923;-91
2022/01/26 10:00:46;;;;;;;;;;;;;;;;;;5122617;27;28418;-91
2022/01/26 10:03:11;;;;;;;;;;;;;;;;;;5122833;27;28502;-91
2022/01/26 10:05:36;;;;;;;;;;;;;;;;;;5122880;27;28548;-93
2022/01/26 10:16:40;;;;;;;;;;;;;;;;;;5140699;27;28251;-91
2022/01/26 10:19:00;;;;;;;;;;;;;;;;;;5140217;27;28582;-92
2022/01/26 10:21:25;;;;;;;;;;;;;;;;;;5122580;27;28377;-92
2022/01/26 10:23:52;;;;;;;;;;;;;;;;;;5123537;27;27812;-91
2022/01/26 10:26:18;;;;;;;;;;;;;;;;;;5124461;27;27811;-92
2022/01/26 10:28:43;;;;;;;;;;;;;;;;;;5124424;27;30248;-92
2022/01/26 10:31:10;;;;;;;;;;;;;;;;;;5123839;27;29187;-91
2022/01/26 10:33:35;;;;;;;;;;;;;;;;;;5123622;27;28290;-92
2022/01/26 10:36:01;;;;;;;;;;;;;;;;;;5123279;27;35053;-92
2022/01/26 10:38:26;;;;;;;;;;;;;;;;;;5124283;27;29949;-91
2022/01/26 10:40:51;;;;;;;;;;;;;;;;;;5125523;27;28561;-93
2022/01/26 10:43:17;;;;;;;;;;;;;;;;;;5124526;27;28458;-93
2022/01/26 10:48:18;;;;;;;;;;;;;;;;;;5143098;27;28435;-92
2022/01/26 10:50:58;;;;;;;;;;;;;;;;;;5124350;27;28466;-92
2022/01/26 10:53:23;;;;;;;;;;;;;;;;;;5124763;27;27851;-93
2022/01/26 10:55:48;;;;;;;;;;;;;;;;;;5124514;27;28307;-93
2022/01/26 10:58:16;;;;;;;;;;;;;;;;;;5122656;27;29839;-92
2022/01/26 11:00:41;;;;;;;;;;;;;;;;;;5121868;27;28803;-91
2022/01/26 11:03:07;;;;;;;;;;;;;;;;;;5121150;27;28473;-91
2022/01/26 11:05:32;;;;;;;;;;;;;;;;;;5120128;27;28440;-91
2022/01/26 11:07:57;;;;;;;;;;;;;;;;;;5120521;27;29566;-90
2022/01/26 11:10:24;;;;;;;;;;;;;;;;;;5120850;27;28407;-92
2022/01/26 11:12:49;;;;;;;;;;;;;;;;;;5120778;27;28416;-90
2022/01/26 11:15:14;;;;;;;;;;;;;;;;;;5120502;27;35113;-91
2022/01/26 11:17:41;;;;;;;;;;;;;;;;;;5120297;27;30546;-91
2022/01/26 11:20:06;;;;;;;;;;;;;;;;;;5128893;27;28593;-91
2022/01/26 11:22:32;;;;;;;;;;;;;;;;;;5121075;27;27755;-91
2022/01/26 11:24:57;;;;;;;;;;;;;;;;;;5120427;27;28595;-90
2022/01/26 11:27:23;;;;;;;;;;;;;;;;;;5120591;27;28747;-90
2022/01/26 11:29:53;;;;;;;;;;;;;;;;;;5121859;27;29165;-94
2022/01/26 11:32:23;;;;;;;;;;;;;;;;;;5126568;27;28392;-92
2022/01/26 11:34:48;;;;;;;;;;;;;;;;;;5121050;27;27927;-90
2022/01/26 11:37:15;;;;;;;;;;;;;;;;;;5120714;27;30103;-90
2022/01/26 11:45:08;;;;;;;;;;;;;;;;;;5137923;27;28293;-89
2022/01/26 11:47:33;;;;;;;;;;;;;;;;;;5118934;27;30963;-90
2022/01/26 11:49:58;;;;;;;;;;;;;;;;;;5119043;27;29251;-90
2022/01/26 11:52:24;;;;;;;;;;;;;;;;;;5118992;27;27674;-89
2022/01/26 11:54:52;;;;;;;;;;;;;;;;;;5118798;27;28448;-90
2022/01/26 11:57:18;;;;;;;;;;;;;;;;;;5137063;27;29426;-89
2022/01/26 11:59:48;;;;;;;;;;;;;;;;;;5137045;27;28396;-89
2022/01/26 12:02:20;;;;;;;;;;;;;;;;;;5118825;27;28296;-89
2022/01/26 12:04:47;;;;;;;;;;;;;;;;;;5119217;27;28530;-91
2022/01/26 12:07:22;;;;;;;;;;;;;;;;;;5120359;27;30063;-91
2022/01/26 12:09:47;;;;;;;;;;;;;;;;;;5120071;27;28350;-91
2022/01/26 12:12:12;;;;;;;;;;;;;;;;;;5119649;27;28469;-91
2022/01/26 12:14:37;;;;;;;;;;;;;;;;;;5119597;27;28319;-91
2022/01/26 12:17:09;;;;;;;;;;;;;;;;;;5119227;27;29620;-90
2022/01/26 12:19:46;;;;;;;;;;;;;;;;;;5119841;27;28653;-91
2022/01/26 12:38:43;;;;;;;;;;;;;;;;;;5140142;27;29068;-89
2022/01/26 12:43:53;;;;;;;;;;;;;;;;;;5142168;27;28355;-91
2022/01/26 12:46:18;;;;;;;;;;;;;;;;;;5124975;27;28284;-90
2022/01/26 12:48:44;;;;;;;;;;;;;;;;;;5127239;27;30700;-94
2022/01/26 12:51:09;;;;;;;;;;;;;;;;;;5128876;27;28491;-93
2022/01/26 12:53:35;;;;;;;;;;;;;;;;;;5128036;27;27939;-95
2022/01/26 12:56:00;;;;;;;;;;;;;;;;;;5127851;27;28355;-93
2022/01/26 12:58:25;;;;;;;;;;;;;;;;;;5124888;27;29832;-93
2022/01/26 13:00:51;;;;;;;;;;;;;;;;;;5126863;27;28254;-93
2022/01/26 13:03:16;;;;;;;;;;;;;;;;;;5126565;27;28316;-93
2022/01/26 13:05:41;;;;;;;;;;;;;;;;;;5127985;27;28253;-93
2022/01/26 13:08:06;;;;;;;;;;;;;;;;;;5127142;27;29563;-93
2022/01/26 13:10:31;;;;;;;;;;;;;;;;;;5127213;27;29096;-93
2022/01/26 13:12:56;;;;;;;;;;;;;;;;;;5126913;27;27841;-94
2022/01/26 13:15:25;;;;;;;;;;;;;;;;;;5127734;27;28536;-94
2022/01/26 13:17:57;;;;;;;;;;;;;;;;;;5128436;27;30236;-93
2022/01/26 13:20:33;;;;;;;;;;;;;;;;;;5127471;27;28820;-94
2022/01/26 13:25:36;;;;;;;;;;;;;;;;;;5150755;27;27789;-94
2022/01/26 13:36:10;;;;;;;;;;;;;;;;;;5146766;27;28505;-94
2022/01/26 13:41:49;;;;;;;;;;;;;;;;;;5062775;28;28479;-93
2022/01/26 13:55:01;;;;;;;;;;;;;;;;;;5061090;28;28332;-94
2022/01/26 14:00:20;;;;;;;;;;;;;;;;;;5039680;28;29158;-94
2022/01/26 14:02:45;;;;;;;;;;;;;;;;;;5044427;28;27816;-94
2022/01/26 14:05:12;;;;;;;;;;;;;;;;;;5044365;28;28567;-90
2022/01/26 14:07:37;;;;;;;;;;;;;;;;;;5058567;28;27954;-92
2022/01/26 14:10:02;;;;;;;;;;;;;;;;;;5041706;28;29564;-93
2022/01/26 14:12:32;;;;;;;;;;;;;;;;;;5061747;28;28351;-94
2022/01/26 14:14:59;;;;;;;;;;;;;;;;;;5061298;28;28400;-93
2022/01/26 14:17:37;;;;;;;;;;;;;;;;;;5117264;27;28619;-94
2022/01/26 14:27:40;;;;;;;;;;;;;;;;;;5168254;27;28480;-93
2022/01/26 15:33:42;;;;;;;;;;;;;;;;;;5159711;27;28266;-94
2022/01/26 15:41:56;;;;;;;;;;;;;;;;;;5159001;27;28328;-89
2022/01/26 15:44:38;;;;;;;;;;;;;;;;;;5139364;27;30539;-89
2022/01/26 15:49:55;;;;;;;;;;;;;;;;;;5157761;27;28413;-90
2022/01/26 15:58:00;;;;;;;;;;;;;;;;;;5161442;27;28259;-91
2022/01/26 16:38:13;;;;;;;;;;;;;;;;;;5140273;27;29171;-88
2022/01/26 17:34:27;;;;;;;;;;;;;;;;;;5145279;27;28528;-94
2022/01/26 18:49:34;;;;;;;;;;;;;;;;;;5010492;28;27890;-94
2022/01/26 18:52:08;;;;;;;;;;;;;;;;;;4990265;28;27789;-94
2022/01/26 18:54:34;;;;;;;;;;;;;;;;;;5000439;28;27909;-94
2022/01/26 18:56:59;;;;;;;;;;;;;;;;;;5048074;28;29969;-92
2022/01/26 18:59:24;;;;;;;;;;;;;;;;;;5057264;28;28447;-91
2022/01/26 19:01:52;;;;;;;;;;;;;;;;;;5054997;28;28474;-95
2022/01/26 19:04:24;;;;;;;;;;;;;;;;;;5061859;28;28594;-88
2022/01/26 19:06:52;;;;;;;;;;;;;;;;;;5078817;28;28568;-92
2022/01/26 19:09:29;;;;;;;;;;;;;;;;;;5063694;28;29215;-91
2022/01/26 19:11:54;;;;;;;;;;;;;;;;;;5047630;28;28489;-90
2022/01/26 19:14:21;;;;;;;;;;;;;;;;;;5057111;28;28309;-91
2022/01/26 19:16:57;;;;;;;;;;;;;;;;;;5056315;28;28433;-89
2022/01/26 19:19:35;;;;;;;;;;;;;;;;;;5041144;28;28526;-91
2022/01/26 19:51:08;;;;;;;;;;;;;;;;;;5074780;28;28328;-89
2022/01/26 19:53:33;;;;;;;;;;;;;;;;;;5075004;28;28462;-90
2022/01/26 19:55:59;;;;;;;;;;;;;;;;;;5074737;28;28466;-89
2022/01/26 19:58:25;;;;;;;;;;;;;;;;;;5074619;28;28438;-90
2022/01/26 20:00:50;;;;;;;;;;;;;;;;;;5056639;28;28868;-91
2022/01/26 20:03:16;;;;;;;;;;;;;;;;;;5056831;28;28309;-90
2022/01/26 20:05:41;;;;;;;;;;;;;;;;;;5075392;28;28313;-90
2022/01/26 20:08:14;;;;;;;;;;;;;;;;;;5055913;28;30408;-90
2022/01/26 20:10:45;;;;;;;;;;;;;;;;;;5060070;28;28479;-91
2022/01/26 20:13:21;;;;;;;;;;;;;;;;;;5038342;28;28482;-92
2022/01/26 20:15:46;;;;;;;;;;;;;;;;;;5055280;28;28438;-91
2022/01/26 20:18:11;;;;;;;;;;;;;;;;;;5037025;28;29763;-91
2022/01/26 20:20:36;;;;;;;;;;;;;;;;;;5037210;28;28573;-91
2022/01/26 20:23:01;;;;;;;;;;;;;;;;;;5037302;28;28502;-91
2022/01/26 20:25:26;;;;;;;;;;;;;;;;;;5037020;28;28384;-90
2022/01/26 20:27:51;;;;;;;;;;;;;;;;;;5036928;28;30317;-92
2022/01/26 20:30:22;;;;;;;;;;;;;;;;;;5037139;28;28681;-91
2022/01/26 20:32:47;;;;;;;;;;;;;;;;;;5055144;28;28293;-90
2022/01/26 20:35:12;;;;;;;;;;;;;;;;;;5054986;28;28439;-91
2022/01/26 20:37:37;;;;;;;;;;;;;;;;;;5053195;28;30091;-90
2022/01/26 20:40:02;;;;;;;;;;;;;;;;;;5076931;28;29233;-91
2022/01/26 20:42:28;;;;;;;;;;;;;;;;;;5080055;28;28326;-91
2022/01/26 20:44:53;;;;;;;;;;;;;;;;;;5080896;28;28493;-91
2022/01/26 20:47:18;;;;;;;;;;;;;;;;;;5080570;28;30783;-91
2022/01/26 20:49:43;;;;;;;;;;;;;;;;;;5099113;28;28435;-91
2022/01/26 20:52:08;;;;;;;;;;;;;;;;;;5080939;28;27971;-91
2022/01/26 20:54:33;;;;;;;;;;;;;;;;;;5098944;28;28820;-91
2022/01/26 20:56:58;;;;;;;;;;;;;;;;;;5080341;28;29776;-91
2022/01/26 20:59:24;;;;;;;;;;;;;;;;;;5080494;28;28352;-91
2022/01/26 21:01:49;;;;;;;;;;;;;;;;;;5098589;28;28323;-92
2022/01/26 21:04:14;;;;;;;;;;;;;;;;;;5098614;28;27856;-90
2022/01/26 21:06:39;;;;;;;;;;;;;;;;;;5080156;28;30715;-92
2022/01/26 21:09:04;;;;;;;;;;;;;;;;;;5098676;28;27915;-93
2022/01/26 21:11:29;;;;;;;;;;;;;;;;;;5098493;28;28320;-90
2022/01/26 21:13:54;;;;;;;;;;;;;;;;;;5098612;28;28382;-89
2022/01/26 21:16:20;;;;;;;;;;;;;;;;;;5080153;28;30297;-90
2022/01/26 21:18:46;;;;;;;;;;;;;;;;;;5079994;28;28572;-91
2022/01/26 21:21:11;;;;;;;;;;;;;;;;;;5080282;28;28426;-89
2022/01/26 21:23:36;;;;;;;;;;;;;;;;;;5098571;28;28529;-90
2022/01/26 21:26:01;;;;;;;;;;;;;;;;;;5079879;28;30387;-90
2022/01/26 21:28:26;;;;;;;;;;;;;;;;;;5080116;28;28374;-90
2022/01/26 21:30:51;;;;;;;;;;;;;;;;;;5079944;28;28353;-91
2022/01/26 21:33:18;;;;;;;;;;;;;;;;;;5079948;28;28329;-89
2022/01/26 21:35:43;;;;;;;;;;;;;;;;;;5079823;28;29787;-91
2022/01/26 21:38:11;;;;;;;;;;;;;;;;;;5079637;28;28408;-90
2022/01/26 21:40:36;;;;;;;;;;;;;;;;;;5079803;28;28352;-91
2022/01/26 21:43:01;;;;;;;;;;;;;;;;;;5079945;28;28435;-90
2022/01/26 21:45:28;;;;;;;;;;;;;;;;;;5097849;28;28375;-91
2022/01/26 21:47:53;;;;;;;;;;;;;;;;;;5065001;28;28496;-88
2022/01/26 21:50:18;;;;;;;;;;;;;;;;;;5062587;28;28428;-89
2022/01/26 21:52:43;;;;;;;;;;;;;;;;;;5048942;28;28344;-87
2022/01/26 21:55:08;;;;;;;;;;;;;;;;;;5076662;28;29363;-87
2022/01/26 21:57:33;;;;;;;;;;;;;;;;;;5076731;28;28478;-88
2022/01/26 21:59:59;;;;;;;;;;;;;;;;;;5076920;28;28477;-91
2022/01/26 22:02:24;;;;;;;;;;;;;;;;;;5077986;28;27895;-88
2022/01/26 22:04:49;;;;;;;;;;;;;;;;;;5076306;28;28670;-89
2022/01/26 22:07:14;;;;;;;;;;;;;;;;;;5076667;28;28495;-88
2022/01/26 22:09:39;;;;;;;;;;;;;;;;;;5076337;28;28335;-89
2022/01/26 22:12:05;;;;;;;;;;;;;;;;;;5076344;28;28348;-86
2022/01/26 22:14:30;;;;;;;;;;;;;;;;;;5076581;28;28583;-88
2022/01/26 22:16:55;;;;;;;;;;;;;;;;;;5076418;28;28359;-89
2022/01/26 22:19:21;;;;;;;;;;;;;;;;;;5074873;28;28384;-88
2022/01/26 22:21:46;;;;;;;;;;;;;;;;;;5074766;28;28406;-89
2022/01/26 22:24:12;;;;;;;;;;;;;;;;;;5076999;28;28356;-90
2022/01/26 22:26:37;;;;;;;;;;;;;;;;;;5079840;28;28618;-95
2022/01/26 22:29:02;;;;;;;;;;;;;;;;;;5076993;28;28412;-92
2022/01/26 22:31:27;;;;;;;;;;;;;;;;;;5076269;28;28601;-94
2022/01/26 22:33:52;;;;;;;;;;;;;;;;;;5075886;28;29675;-87
2022/01/26 22:36:17;;;;;;;;;;;;;;;;;;5076239;28;28319;-88
2022/01/26 22:38:42;;;;;;;;;;;;;;;;;;5075987;28;28371;-83
2022/01/26 22:41:08;;;;;;;;;;;;;;;;;;5076214;28;28504;-88
2022/01/26 22:43:33;;;;;;;;;;;;;;;;;;5075926;28;30041;-88
2022/01/26 22:45:58;;;;;;;;;;;;;;;;;;5075684;28;28405;-88
2022/01/26 22:48:25;;;;;;;;;;;;;;;;;;5075813;28;28359;-86
2022/01/26 22:50:50;;;;;;;;;;;;;;;;;;5076105;28;28308;-89
2022/01/26 22:53:15;;;;;;;;;;;;;;;;;;5074531;28;29613;-88
2022/01/26 22:55:40;;;;;;;;;;;;;;;;;;5075995;28;28305;-87
2022/01/26 22:58:06;;;;;;;;;;;;;;;;;;5074370;28;28569;-88
2022/01/26 23:00:31;;;;;;;;;;;;;;;;;;5076013;28;28423;-89
2022/01/26 23:02:56;;;;;;;;;;;;;;;;;;5074505;28;28514;-88
2022/01/26 23:07:49;;;;;;;;;;;;;;;;;;5075987;28;28395;-88
2022/01/26 23:10:14;;;;;;;;;;;;;;;;;;5074321;28;28343;-88
2022/01/26 23:12:39;;;;;;;;;;;;;;;;;;5074096;28;28837;-87
2022/01/26 23:15:04;;;;;;;;;;;;;;;;;;5075690;28;28498;-88
2022/01/26 23:17:29;;;;;;;;;;;;;;;;;;5076005;28;28403;-87
2022/01/26 23:19:55;;;;;;;;;;;;;;;;;;5078216;28;28533;-88
2022/01/26 23:22:20;;;;;;;;;;;;;;;;;;5077798;28;29078;-87
2022/01/26 23:24:58;;;;;;;;;;;;;;;;;;5075658;28;28339;-87
2022/01/26 23:27:36;;;;;;;;;;;;;;;;;;5075471;28;28270;-88
2022/01/26 23:30:19;;;;;;;;;;;;;;;;;;5075657;28;28243;-87
2022/01/26 23:41:01;;;;;;;;;;;;;;;;;;5075093;28;28485;-88
